createdAt,value
2023-05-05T00:00:13.511Z,22.60
2023-05-05T00:02:42.016Z,20.08
2023-05-05T00:05:10.457Z,20.38
2023-05-05T00:07:38.700Z,26.33
2023-05-05T00:10:07.472Z,24.48
2023-05-05T00:12:35.768Z,18.42
2023-05-05T00:15:04.352Z,24.05
2023-05-05T00:17:32.412Z,20.83
2023-05-05T00:20:00.525Z,16.80
2023-05-05T00:22:29.156Z,28.35
2023-05-05T00:24:57.401Z,22.88
2023-05-05T00:27:25.517Z,22.85
2023-05-05T00:29:53.550Z,21.05
2023-05-05T00:32:21.594Z,25.98
2023-05-05T00:34:49.852Z,25.33
2023-05-05T00:37:17.964Z,28.95
2023-05-05T00:39:46.245Z,26.38
2023-05-05T00:42:14.330Z,25.38
2023-05-05T00:44:42.813Z,23.45
2023-05-05T00:47:12.051Z,22.40
2023-05-05T00:49:40.863Z,19.60
2023-05-05T00:52:10.258Z,17.08
2023-05-05T00:54:39.402Z,23.48
2023-05-05T00:57:07.616Z,21.48
2023-05-05T00:59:37.392Z,22.25
2023-05-05T01:02:05.525Z,24.48
2023-05-05T01:04:33.631Z,26.25
2023-05-05T01:07:47.340Z,20.42
2023-05-05T01:10:44.820Z,22.15
2023-05-05T01:13:40.509Z,23.75
2023-05-05T01:16:16.651Z,28.35
2023-05-05T01:18:53.872Z,27.25
2023-05-05T01:21:54.253Z,33.10
2023-05-05T01:24:49.229Z,41.83
2023-05-05T01:27:41.908Z,41.88
2023-05-05T01:30:19.094Z,35.38
2023-05-05T01:32:53.812Z,34.28
2023-05-05T01:35:30.637Z,41.25
2023-05-05T01:38:08.504Z,31.52
2023-05-05T01:40:45.698Z,36.53
2023-05-05T01:43:16.372Z,36.10
2023-05-05T01:45:45.798Z,30.83
2023-05-05T01:48:20.098Z,20.30
2023-05-05T01:50:50.435Z,28.98
2023-05-05T01:53:20.711Z,29.15
2023-05-05T01:55:51.114Z,51.10
2023-05-05T01:58:21.900Z,71.20
2023-05-05T02:00:51.748Z,66.38
2023-05-05T02:03:22.955Z,58.75
2023-05-05T02:05:53.530Z,77.80
2023-05-05T02:08:21.980Z,69.80
2023-05-05T02:10:53.093Z,73.80
2023-05-05T02:13:22.874Z,80.90
2023-05-05T02:15:52.469Z,85.75
2023-05-05T02:18:22.483Z,78.25
2023-05-05T02:20:51.420Z,73.93
2023-05-05T02:23:20.054Z,80.72
2023-05-05T02:25:53.532Z,76.90
2023-05-05T02:28:23.842Z,81.03
2023-05-05T02:31:01.556Z,90.70
2023-05-05T02:33:34.387Z,96.03
2023-05-05T02:36:34.011Z,85.75
2023-05-05T02:39:12.873Z,84.10
2023-05-05T02:41:43.487Z,84.20
2023-05-05T02:44:25.092Z,77.88
2023-05-05T02:46:55.343Z,101.90
2023-05-05T02:49:25.003Z,84.50
2023-05-05T02:51:58.694Z,78.43
2023-05-05T02:54:32.869Z,86.85
2023-05-05T02:57:03.316Z,72.53
2023-05-05T02:59:50.962Z,73.55
2023-05-05T03:02:35.516Z,80.38
2023-05-05T03:05:11.338Z,75.72
2023-05-05T03:08:03.014Z,69.20
2023-05-05T03:10:43.024Z,59.85
2023-05-05T03:13:14.615Z,57.20
2023-05-05T03:15:48.507Z,51.72
2023-05-05T03:18:21.775Z,53.60
2023-05-05T03:20:57.412Z,47.78
2023-05-05T03:23:25.991Z,42.30
2023-05-05T03:25:59.022Z,50.22
2023-05-05T03:28:31.633Z,37.33
2023-05-05T03:31:04.453Z,35.50
2023-05-05T03:33:34.888Z,39.13
2023-05-05T03:36:02.984Z,40.08
2023-05-05T03:38:31.246Z,50.88
2023-05-05T03:41:02.630Z,37.13
2023-05-05T03:43:31.826Z,38.17
2023-05-05T03:46:00.501Z,37.38
2023-05-05T03:48:29.349Z,39.63
2023-05-05T03:50:57.796Z,39.40
2023-05-05T03:53:28.335Z,40.97
2023-05-05T03:55:56.450Z,41.83
2023-05-05T03:58:24.580Z,48.58
2023-05-05T04:00:53.043Z,46.60
2023-05-05T04:03:21.850Z,54.53
2023-05-05T04:05:50.375Z,54.83
2023-05-05T04:08:18.480Z,67.78
2023-05-05T04:10:46.771Z,59.67
2023-05-05T04:13:15.170Z,55.15
2023-05-05T04:15:49.376Z,49.55
2023-05-05T04:18:18.837Z,48.75
2023-05-05T04:20:47.430Z,52.38
2023-05-05T04:23:15.573Z,63.00
2023-05-05T04:25:45.779Z,52.35
2023-05-05T04:28:14.247Z,44.22
2023-05-05T04:30:42.894Z,44.75
2023-05-05T04:33:11.533Z,42.58
2023-05-05T04:35:39.760Z,41.08
2023-05-05T04:38:08.409Z,37.55
2023-05-05T04:40:40.311Z,44.90
2023-05-05T04:43:09.755Z,34.85
2023-05-05T04:45:38.230Z,32.65
2023-05-05T04:48:07.103Z,34.65
2023-05-05T04:50:35.281Z,34.60
2023-05-05T04:53:03.460Z,34.42
2023-05-05T04:55:31.601Z,40.35
2023-05-05T04:57:59.640Z,29.65
2023-05-05T05:00:27.767Z,37.28
2023-05-05T05:02:56.183Z,31.65
2023-05-05T05:05:24.319Z,31.25
2023-05-05T05:07:52.404Z,35.33
2023-05-05T05:10:20.578Z,33.00
2023-05-05T05:12:49.139Z,29.05
2023-05-05T05:15:17.355Z,30.20
2023-05-05T05:17:45.727Z,36.05
2023-05-05T05:20:14.027Z,30.50
2023-05-05T05:22:42.091Z,41.85
2023-05-05T05:25:15.266Z,30.50
2023-05-05T05:27:44.759Z,36.75
2023-05-05T05:30:15.412Z,28.70
2023-05-05T05:32:43.712Z,44.38
2023-05-05T05:35:12.018Z,32.88
2023-05-05T05:37:40.892Z,31.83
2023-05-05T05:40:10.166Z,31.35
2023-05-05T05:42:39.320Z,36.47
2023-05-05T05:45:08.661Z,41.38
2023-05-05T05:47:37.264Z,40.33
2023-05-05T05:50:07.018Z,35.42
2023-05-05T05:52:36.357Z,38.17
2023-05-05T05:55:07.643Z,36.90
2023-05-05T05:57:36.205Z,29.08
2023-05-05T06:00:07.111Z,37.45
2023-05-05T06:02:44.633Z,35.30
2023-05-05T06:05:17.092Z,28.33
2023-05-05T06:07:47.095Z,25.63
2023-05-05T06:10:27.206Z,47.22
2023-05-05T06:13:13.235Z,37.83
2023-05-05T06:15:45.526Z,35.72
2023-05-05T06:18:15.225Z,34.85
2023-05-05T06:20:43.775Z,27.70
2023-05-05T06:23:14.113Z,32.00
2023-05-05T06:25:47.567Z,35.20
2023-05-05T06:28:15.960Z,33.83
2023-05-05T06:30:44.094Z,25.17
2023-05-05T06:33:12.613Z,35.30
2023-05-05T06:35:40.683Z,29.10
2023-05-05T06:38:08.850Z,35.50
2023-05-05T06:40:37.187Z,32.75
2023-05-05T06:43:05.268Z,31.17
2023-05-05T06:45:38.011Z,36.38
2023-05-05T06:48:06.403Z,40.17
2023-05-05T06:50:34.501Z,38.20
2023-05-05T06:53:02.757Z,32.40
2023-05-05T06:55:31.133Z,37.92
2023-05-05T06:57:59.400Z,36.97
2023-05-05T07:00:27.597Z,49.63
2023-05-05T07:02:55.885Z,43.55
2023-05-05T07:05:24.286Z,52.67
2023-05-05T07:07:53.761Z,53.78
2023-05-05T07:10:23.199Z,52.58
2023-05-05T07:12:52.273Z,57.63
2023-05-05T07:15:28.666Z,51.85
2023-05-05T07:17:58.586Z,57.70
2023-05-05T07:20:27.132Z,46.72
2023-05-05T07:22:55.504Z,60.25
2023-05-05T07:25:23.555Z,58.75
2023-05-05T07:27:51.823Z,50.25
2023-05-05T07:30:20.383Z,41.92
2023-05-05T07:32:49.036Z,71.78
2023-05-05T07:35:17.542Z,52.35
2023-05-05T07:37:46.523Z,50.45
2023-05-05T07:40:14.840Z,57.67
2023-05-05T07:42:42.934Z,53.03
2023-05-05T07:45:12.124Z,56.03
2023-05-05T07:47:40.533Z,61.53
2023-05-05T07:50:09.659Z,40.65
2023-05-05T07:52:48.282Z,43.72
2023-05-05T07:55:22.133Z,45.50
2023-05-05T07:57:50.376Z,45.72
2023-05-05T08:00:18.940Z,43.40
2023-05-05T08:02:47.285Z,36.08
2023-05-05T08:05:15.599Z,43.45
2023-05-05T08:07:44.069Z,45.67
2023-05-05T08:10:12.939Z,37.58
2023-05-05T08:12:41.398Z,37.20
2023-05-05T08:15:10.184Z,37.28
2023-05-05T08:17:49.923Z,38.15
2023-05-05T08:20:20.054Z,34.22
2023-05-05T08:22:48.717Z,40.50
2023-05-05T08:25:16.911Z,42.00
2023-05-05T08:27:45.560Z,46.60
2023-05-05T08:30:14.132Z,34.63
2023-05-05T08:32:42.632Z,38.45
2023-05-05T08:35:11.159Z,38.10
2023-05-05T08:37:39.966Z,32.28
2023-05-05T08:40:11.651Z,38.78
2023-05-05T08:42:40.041Z,36.40
2023-05-05T08:45:09.979Z,31.60
2023-05-05T08:47:39.202Z,24.45
2023-05-05T08:50:10.630Z,33.45
2023-05-05T08:52:45.667Z,31.80
2023-05-05T08:55:20.600Z,51.10
2023-05-05T08:57:58.862Z,26.33
2023-05-05T09:00:28.274Z,33.80
2023-05-05T09:02:58.872Z,34.03
2023-05-05T09:05:27.530Z,102.50
2023-05-05T09:07:55.637Z,71.25
2023-05-05T09:10:25.089Z,48.42
2023-05-05T09:12:53.331Z,35.95
2023-05-05T09:15:21.750Z,47.67
2023-05-05T09:17:49.884Z,45.67
2023-05-05T09:20:18.121Z,68.88
2023-05-05T09:22:47.984Z,30.70
2023-05-05T09:25:18.613Z,26.70
2023-05-05T09:27:48.775Z,61.33
2023-05-05T09:30:23.920Z,20.35
2023-05-05T09:32:54.872Z,25.30
2023-05-05T09:35:24.078Z,25.92
2023-05-05T09:37:52.275Z,29.05
2023-05-05T09:40:21.668Z,19.95
2023-05-05T09:43:00.971Z,20.27
2023-05-05T09:45:29.976Z,23.60
2023-05-05T09:48:00.236Z,28.27
2023-05-05T09:50:28.961Z,16.42
2023-05-05T09:52:58.299Z,18.90
2023-05-05T09:55:26.392Z,24.05
2023-05-05T09:57:54.710Z,15.93
2023-05-05T10:00:23.029Z,22.02
2023-05-05T10:02:51.496Z,19.58
2023-05-05T10:05:21.139Z,11.70
2023-05-05T10:07:49.413Z,14.82
2023-05-05T10:10:18.786Z,30.67
2023-05-05T10:12:51.343Z,20.42
2023-05-05T10:15:19.722Z,18.08
2023-05-05T10:20:23.238Z,26.95
2023-05-05T10:22:55.906Z,29.17
2023-05-05T10:25:31.339Z,16.17
2023-05-05T10:28:01.201Z,21.38
2023-05-05T10:30:35.859Z,20.42
2023-05-05T10:35:57.720Z,32.35
2023-05-05T10:38:30.186Z,25.25
2023-05-05T10:41:01.060Z,25.50
2023-05-05T10:43:30.998Z,21.42
2023-05-05T10:46:00.374Z,23.77
2023-05-05T10:48:51.871Z,24.00
2023-05-05T10:51:41.284Z,18.52
2023-05-05T10:54:31.399Z,18.48
2023-05-05T10:57:01.424Z,22.30
2023-05-05T10:59:38.950Z,18.58
2023-05-05T11:02:23.400Z,19.17
2023-05-05T11:05:17.955Z,23.90
2023-05-05T11:07:48.434Z,18.17
2023-05-05T11:10:18.947Z,27.80
2023-05-05T11:12:53.293Z,27.38
2023-05-05T11:15:30.650Z,16.58
2023-05-05T11:18:05.876Z,29.98
2023-05-05T11:20:38.885Z,17.85
2023-05-05T11:23:07.263Z,25.08
2023-05-05T11:25:38.338Z,23.92
2023-05-05T11:28:14.211Z,57.33
2023-05-05T11:30:58.253Z,32.67
2023-05-05T11:33:37.818Z,51.53
2023-05-05T11:36:11.495Z,24.95
2023-05-05T11:39:04.913Z,23.20
2023-05-05T11:41:45.199Z,20.38
2023-05-05T11:44:16.985Z,27.08
2023-05-05T11:49:34.180Z,19.90
2023-05-05T11:52:11.847Z,21.65
2023-05-05T11:54:45.035Z,29.67
2023-05-05T11:57:13.268Z,28.67
2023-05-05T12:00:01.649Z,21.08
2023-05-05T12:02:32.978Z,24.83
2023-05-05T12:05:01.744Z,20.63
2023-05-05T12:07:32.482Z,21.80
2023-05-05T12:10:01.123Z,19.17
2023-05-05T12:12:41.534Z,23.02
2023-05-05T12:15:10.788Z,17.73
2023-05-05T12:17:43.522Z,24.65
2023-05-05T12:20:13.098Z,41.85
2023-05-05T12:22:41.798Z,33.63
2023-05-05T12:25:10.715Z,28.88
2023-05-05T12:27:39.227Z,27.48
2023-05-05T12:30:18.756Z,42.20
2023-05-05T12:32:47.202Z,39.92
2023-05-05T12:35:15.602Z,29.30
2023-05-05T12:37:44.325Z,39.55
2023-05-05T12:40:50.359Z,25.20
2023-05-05T12:43:32.103Z,32.20
2023-05-05T12:46:02.061Z,28.50
2023-05-05T12:48:30.580Z,18.55
2023-05-05T12:51:17.449Z,25.55
2023-05-05T12:54:01.393Z,25.85
2023-05-05T12:56:46.334Z,24.50
2023-05-05T12:59:23.680Z,26.08
2023-05-05T13:01:53.226Z,31.73
2023-05-05T13:04:23.400Z,32.97
2023-05-05T13:07:12.451Z,30.77
2023-05-05T13:09:41.259Z,22.48
2023-05-05T13:12:09.595Z,30.08
2023-05-05T13:14:41.209Z,22.35
2023-05-05T13:17:11.222Z,33.30
2023-05-05T13:19:40.221Z,24.30
2023-05-05T13:22:09.680Z,32.63
2023-05-05T13:24:49.814Z,52.45
2023-05-05T13:27:21.142Z,61.13
2023-05-05T13:29:49.364Z,25.02
2023-05-05T13:32:17.552Z,48.28
2023-05-05T13:34:46.022Z,26.42
2023-05-05T13:37:14.133Z,23.70
2023-05-05T13:39:42.536Z,34.15
2023-05-05T13:42:10.911Z,20.45
2023-05-05T13:44:39.040Z,33.55
2023-05-05T13:47:07.404Z,27.45
2023-05-05T13:49:36.134Z,28.33
2023-05-05T13:52:04.450Z,33.22
2023-05-05T13:54:32.804Z,41.50
2023-05-05T13:57:01.008Z,34.42
2023-05-05T13:59:29.155Z,22.88
2023-05-05T14:01:57.486Z,49.65
2023-05-05T14:04:25.983Z,27.67
2023-05-05T14:06:54.322Z,24.92
2023-05-05T14:09:22.560Z,31.35
2023-05-05T14:11:50.740Z,51.25
2023-05-05T14:14:19.047Z,24.27
2023-05-05T14:16:49.881Z,40.83
2023-05-05T14:19:18.531Z,36.38
2023-05-05T14:21:46.849Z,33.35
2023-05-05T14:24:15.124Z,22.45
2023-05-05T14:26:43.493Z,22.13
2023-05-05T14:29:11.687Z,38.72
2023-05-05T14:31:39.868Z,35.03
2023-05-05T14:34:08.074Z,31.80
2023-05-05T14:36:36.303Z,41.78
2023-05-05T14:39:06.190Z,37.13
2023-05-05T14:41:34.343Z,25.58
2023-05-05T14:44:02.491Z,20.30
2023-05-05T14:46:31.357Z,23.80
2023-05-05T14:49:00.094Z,31.90
2023-05-05T14:51:28.540Z,24.88
2023-05-05T14:53:56.604Z,25.58
2023-05-05T14:56:26.252Z,23.05
2023-05-05T14:58:54.464Z,25.75
2023-05-05T15:01:22.798Z,22.60
2023-05-05T15:03:51.613Z,19.50
2023-05-05T15:06:20.347Z,23.67
2023-05-05T15:08:48.515Z,20.17
2023-05-05T15:11:16.684Z,18.17
2023-05-05T15:13:44.997Z,21.55
2023-05-05T15:16:13.110Z,20.42
2023-05-05T15:18:41.410Z,31.27
2023-05-05T15:21:09.657Z,22.70
2023-05-05T15:23:38.190Z,24.13
2023-05-05T15:26:06.354Z,34.88
2023-05-05T15:28:34.514Z,87.32
2023-05-05T15:31:02.950Z,38.95
2023-05-05T15:33:31.149Z,31.70
2023-05-05T15:38:45.252Z,25.38
2023-05-05T15:41:13.396Z,19.42
2023-05-05T15:43:41.589Z,18.33
2023-05-05T15:46:09.712Z,19.77
2023-05-05T15:48:37.907Z,23.63
2023-05-05T15:51:06.151Z,28.75
2023-05-05T15:53:34.358Z,24.77
2023-05-05T15:56:02.613Z,24.02
2023-05-05T15:58:30.712Z,19.00
2023-05-05T16:00:59.087Z,26.38
2023-05-05T16:03:27.349Z,16.48
2023-05-05T16:05:55.643Z,22.45
2023-05-05T16:08:23.939Z,23.35
2023-05-05T16:10:52.069Z,21.83
2023-05-05T16:13:20.294Z,15.07
2023-05-05T16:15:48.601Z,8.35
2023-05-05T16:18:16.681Z,10.05
2023-05-05T16:20:44.861Z,18.45
2023-05-05T16:23:13.090Z,14.45
2023-05-05T16:25:41.237Z,12.18
2023-05-05T16:28:09.289Z,20.20
2023-05-05T16:30:37.590Z,20.65
2023-05-05T16:33:06.100Z,22.65
2023-05-05T16:35:34.435Z,23.20
2023-05-05T16:38:02.593Z,23.50
2023-05-05T16:40:31.182Z,20.08
2023-05-05T16:42:59.243Z,21.77
2023-05-05T16:45:27.539Z,19.67
2023-05-05T16:47:56.233Z,30.83
2023-05-05T16:50:24.798Z,22.13
2023-05-05T16:52:53.004Z,24.05
2023-05-05T16:55:21.306Z,28.52
2023-05-05T16:57:49.431Z,26.75
2023-05-05T17:00:17.862Z,30.05
2023-05-05T17:02:45.945Z,40.97
2023-05-05T17:05:14.191Z,38.20
2023-05-05T17:07:42.430Z,33.80
2023-05-05T17:10:11.006Z,38.10
2023-05-05T17:12:39.169Z,30.05
2023-05-05T17:15:08.699Z,41.22
2023-05-05T17:17:37.110Z,25.38
2023-05-05T17:20:05.653Z,31.25
2023-05-05T17:22:33.993Z,22.88
2023-05-05T17:25:02.058Z,27.33
2023-05-05T17:27:30.224Z,35.28
2023-05-05T17:29:58.510Z,32.13
2023-05-05T17:32:26.808Z,39.28
2023-05-05T17:34:54.963Z,42.15
2023-05-05T17:37:23.407Z,41.03
2023-05-05T17:39:51.457Z,32.63
2023-05-05T17:42:19.655Z,33.92
2023-05-05T17:44:47.852Z,27.35
2023-05-05T17:47:19.141Z,27.63
2023-05-05T17:49:47.384Z,29.63
2023-05-05T17:52:16.038Z,37.60
2023-05-05T17:54:44.263Z,39.50
2023-05-05T17:57:13.120Z,43.03
2023-05-05T17:59:41.303Z,40.65
2023-05-05T18:02:09.998Z,41.33
2023-05-05T18:04:38.958Z,32.05
2023-05-05T18:07:07.087Z,51.72
2023-05-05T18:09:35.814Z,61.75
2023-05-05T18:12:04.344Z,42.92
2023-05-05T18:14:32.767Z,42.83
2023-05-05T18:17:00.978Z,60.47
2023-05-05T18:19:29.177Z,70.55
2023-05-05T18:21:57.607Z,66.55
2023-05-05T18:24:26.121Z,57.08
2023-05-05T18:26:54.586Z,55.50
2023-05-05T18:29:23.169Z,59.42
2023-05-05T18:31:52.211Z,61.13
2023-05-05T18:34:20.977Z,53.42
2023-05-05T18:36:51.943Z,62.72
2023-05-05T18:39:20.488Z,60.13
2023-05-05T18:41:48.617Z,58.55
2023-05-05T18:44:17.474Z,74.60
2023-05-05T18:46:45.609Z,86.57
2023-05-05T18:49:14.169Z,78.75
2023-05-05T18:51:42.405Z,84.15
2023-05-05T18:54:10.694Z,68.43
2023-05-05T18:56:38.793Z,72.45
2023-05-05T18:59:07.112Z,47.88
2023-05-05T19:01:35.193Z,43.42
2023-05-05T19:04:05.454Z,47.22
2023-05-05T19:06:38.652Z,45.25
2023-05-05T19:09:06.910Z,48.10
2023-05-05T19:11:34.953Z,37.28
2023-05-05T19:14:03.232Z,45.08
2023-05-05T19:16:31.675Z,50.55
2023-05-05T19:18:59.950Z,44.20
2023-05-05T19:21:28.806Z,47.42
2023-05-05T19:23:57.236Z,39.45
2023-05-05T19:26:25.460Z,43.17
2023-05-05T19:28:53.715Z,33.08
2023-05-05T19:31:21.860Z,40.05
2023-05-05T19:33:50.140Z,43.15
2023-05-05T19:36:18.257Z,27.85
2023-05-05T19:38:46.685Z,28.15
2023-05-05T19:41:15.034Z,28.90
2023-05-05T19:43:43.209Z,31.95
2023-05-05T19:46:11.290Z,34.63
2023-05-05T19:48:39.734Z,20.35
2023-05-05T19:51:08.026Z,21.50
2023-05-05T19:53:36.264Z,21.50
2023-05-05T19:56:04.723Z,21.52
2023-05-05T19:59:02.132Z,22.88
2023-05-05T20:01:30.672Z,19.80
2023-05-05T20:03:59.024Z,15.20
2023-05-05T20:06:27.449Z,15.60
2023-05-05T20:08:55.852Z,21.83
2023-05-05T20:11:26.457Z,23.08
2023-05-05T20:13:54.812Z,19.90
2023-05-05T20:16:23.103Z,14.88
2023-05-05T20:18:51.906Z,17.77
2023-05-05T20:21:20.123Z,18.02
2023-05-05T20:23:48.745Z,21.27
2023-05-05T20:26:17.241Z,21.27
2023-05-05T20:28:45.526Z,17.10
2023-05-05T20:31:15.544Z,21.55
2023-05-05T20:33:43.813Z,22.00
2023-05-05T20:36:12.419Z,31.85
2023-05-05T20:38:40.561Z,25.73
2023-05-05T20:41:08.824Z,42.17
2023-05-05T20:43:37.766Z,40.15
2023-05-05T20:46:06.086Z,24.63
2023-05-05T20:48:34.271Z,24.25
2023-05-05T20:51:05.075Z,20.33
2023-05-05T20:53:33.534Z,20.60
2023-05-05T20:56:01.869Z,33.65
2023-05-05T20:58:30.669Z,19.73
2023-05-05T21:02:41.317Z,21.00
2023-05-05T21:05:10.052Z,18.35
2023-05-05T21:07:38.449Z,29.65
2023-05-05T21:10:07.824Z,24.98
2023-05-05T21:12:36.413Z,18.55
2023-05-05T21:15:04.875Z,29.40
2023-05-05T21:17:33.324Z,26.77
2023-05-05T21:20:01.435Z,32.95
2023-05-05T21:22:29.708Z,36.33
2023-05-05T21:25:28.073Z,29.30
2023-05-05T21:27:56.253Z,32.60
2023-05-05T21:30:24.952Z,29.35
2023-05-05T21:32:53.612Z,38.40
2023-05-05T21:35:21.866Z,43.47
2023-05-05T21:37:50.236Z,48.25
2023-05-05T21:40:18.589Z,36.92
2023-05-05T21:42:46.939Z,46.35
2023-05-05T21:45:15.035Z,41.90
2023-05-05T21:47:43.398Z,42.35
2023-05-05T21:50:12.519Z,36.28
2023-05-05T21:52:41.046Z,32.45
2023-05-05T21:55:09.695Z,29.65
2023-05-05T21:57:38.004Z,43.95
2023-05-05T22:00:06.826Z,45.72
2023-05-05T22:02:40.601Z,29.80
2023-05-05T22:05:09.377Z,27.58
2023-05-05T22:07:37.440Z,37.05
2023-05-05T22:10:06.061Z,41.38
2023-05-05T22:12:34.593Z,23.75
2023-05-05T22:15:02.844Z,39.78
2023-05-05T22:17:31.193Z,35.85
2023-05-05T22:19:59.815Z,41.35
2023-05-05T22:22:27.969Z,39.67
2023-05-05T22:24:56.420Z,27.65
2023-05-05T22:27:25.226Z,29.40
2023-05-05T22:29:53.472Z,37.72
2023-05-05T22:32:21.733Z,34.67
2023-05-05T22:34:50.170Z,32.80
2023-05-05T22:37:18.404Z,36.47
2023-05-05T22:39:46.697Z,34.63
2023-05-05T22:42:15.672Z,33.38
2023-05-05T22:44:43.854Z,32.22
2023-05-05T22:47:12.088Z,32.25
2023-05-05T22:49:40.873Z,34.08
2023-05-05T22:52:08.961Z,28.42
2023-05-05T22:54:37.243Z,39.88
2023-05-05T22:57:05.471Z,34.63
2023-05-05T22:59:33.606Z,28.63
2023-05-05T23:02:02.056Z,29.08
2023-05-05T23:04:30.754Z,30.75
2023-05-05T23:06:58.938Z,34.25
2023-05-05T23:09:27.193Z,31.05
2023-05-05T23:11:55.447Z,29.95
2023-05-05T23:14:23.692Z,30.55
2023-05-05T23:16:51.907Z,30.65
2023-05-05T23:19:20.490Z,29.42
2023-05-05T23:21:53.337Z,34.85
2023-05-05T23:24:22.950Z,31.40
2023-05-05T23:26:51.492Z,39.53
2023-05-05T23:29:20.318Z,41.67
2023-05-05T23:31:48.870Z,38.45
2023-05-05T23:34:17.301Z,35.65
2023-05-05T23:36:45.648Z,41.47
2023-05-05T23:39:13.889Z,31.35
2023-05-05T23:41:43.357Z,38.10
2023-05-05T23:44:11.563Z,44.40
2023-05-05T23:46:39.782Z,40.58
2023-05-05T23:49:09.042Z,43.42
2023-05-05T23:51:37.121Z,38.00
2023-05-05T23:54:05.557Z,36.05
2023-05-05T23:56:33.813Z,39.80
2023-05-05T23:59:01.860Z,49.55
